Time;durP1;ratioP1;P1;durP2;ratioP2;P2;SDS_P1;SDS_P2;PMS_P1;PMS_P2;Temp;Humidity;BMP_temperature;BMP_pressure;BME280_temperature;BME280_humidity;BME280_pressure;Samples;Min_cycle;Max_cycle;Signal;HPM_P1;HPM_P2
2022/03/26 00:01:58;;;;;;;9.88;4.88;;;;;;;10.78;33.39;99820.41;5074572;28;20043;-66
2022/03/26 00:04:43;;;;;;;14.30;6.10;;;;;;;10.76;33.44;99817.88;5059156;28;20136;-67
2022/03/26 00:07:29;;;;;;;14.32;6.05;;;;;;;10.94;33.40;99823.91;5074540;28;20488;-66
2022/03/26 00:10:14;;;;;;;10.98;6.00;;;;;;;10.76;32.81;99817.88;5059608;28;20411;-67
2022/03/26 00:12:59;;;;;;;17.02;7.95;;;;;;;10.68;34.58;99817.41;5073103;28;20040;-66
2022/03/26 00:15:44;;;;;;;10.20;5.88;;;;;;;10.49;33.68;99818.38;5073945;28;20045;-67
2022/03/26 00:18:29;;;;;;;14.80;6.10;;;;;;;10.76;32.41;99814.38;5074064;28;20045;-66
2022/03/26 00:21:14;;;;;;;15.05;6.55;;;;;;;10.92;32.99;99823.13;5073024;28;20484;-67
2022/03/26 00:23:59;;;;;;;13.75;6.47;;;;;;;10.32;34.10;99817.44;5074004;28;20055;-68
2022/03/26 00:26:45;;;;;;;15.75;6.70;;;;;;;10.35;34.53;99822.53;5073090;28;20044;-67
2022/03/26 00:29:30;;;;;;;13.18;6.15;;;;;;;10.40;34.63;99819.66;5072211;28;20043;-67
2022/03/26 00:32:15;;;;;;;16.65;7.05;;;;;;;10.40;33.64;99824.03;5073888;28;20482;-67
2022/03/26 00:35:00;;;;;;;12.30;5.78;;;;;;;10.40;33.50;99816.19;5072801;28;20395;-67
2022/03/26 00:37:46;;;;;;;11.13;6.10;;;;;;;10.42;33.47;99817.81;5072474;28;20047;-66
2022/03/26 00:40:31;;;;;;;12.35;5.85;;;;;;;10.56;34.02;99818.94;5058727;28;20133;-67
2022/03/26 00:43:16;;;;;;;13.80;6.45;;;;;;;10.37;33.91;99816.34;5072367;28;20048;-66
2022/03/26 00:46:01;;;;;;;10.57;5.63;;;;;;;10.59;32.88;99813.53;5072709;28;20056;-66
2022/03/26 00:48:46;;;;;;;13.60;6.13;;;;;;;10.64;32.95;99808.03;5072405;28;20049;-66
2022/03/26 00:51:31;;;;;;;11.23;5.80;;;;;;;10.85;32.47;99806.06;5058686;28;20044;-65
2022/03/26 00:54:16;;;;;;;13.48;6.82;;;;;;;10.71;32.45;99807.63;5073496;28;20094;-65
2022/03/26 00:57:01;;;;;;;13.20;6.30;;;;;;;10.66;32.45;99807.00;5058184;28;20442;-66
2022/03/26 00:59:46;;;;;;;12.27;6.32;;;;;;;10.30;33.37;99808.81;5073366;28;20062;-66
2022/03/26 01:02:31;;;;;;;12.52;6.68;;;;;;;10.34;32.92;99810.38;5072199;28;20043;-66
2022/03/26 01:05:16;;;;;;;10.70;5.57;;;;;;;10.62;32.96;99800.25;5071982;28;20052;-67
2022/03/26 01:08:02;;;;;;;14.00;6.20;;;;;;;10.71;32.20;99804.16;5057945;28;20053;-66
2022/03/26 01:10:47;;;;;;;12.82;6.15;;;;;;;10.53;33.06;99805.94;5073218;28;20057;-67
2022/03/26 01:13:34;;;;;;;12.10;5.70;;;;;;;10.15;33.39;99807.81;5072853;28;20056;-67
2022/03/26 01:16:20;;;;;;;11.68;6.07;;;;;;;10.09;34.02;99802.88;5072260;28;20067;-66
2022/03/26 01:19:05;;;;;;;11.40;5.90;;;;;;;9.78;34.95;99814.84;5072136;28;20044;-67
2022/03/26 01:21:50;;;;;;;11.52;5.93;;;;;;;9.59;35.60;99807.91;5072807;28;20467;-66
2022/03/26 01:24:35;;;;;;;15.45;6.93;;;;;;;9.83;34.41;99808.50;5073682;28;20094;-67
2022/03/26 01:27:20;;;;;;;13.88;5.70;;;;;;;9.98;34.96;99800.81;5075354;28;20053;-67
2022/03/26 01:30:06;;;;;;;15.60;5.93;;;;;;;9.96;35.07;99792.16;5074613;28;20041;-67
2022/03/26 01:32:52;;;;;;;18.10;6.97;;;;;;;9.65;36.47;99793.66;5075458;28;20399;-67
2022/03/26 01:35:37;;;;;;;13.85;6.15;;;;;;;9.58;35.09;99793.97;5083072;28;20044;-67
2022/03/26 01:38:22;;;;;;;11.93;6.68;;;;;;;9.80;36.59;99795.56;5078746;28;20102;-67
2022/03/26 01:41:07;;;;;;;11.18;6.18;;;;;;;9.76;35.63;99799.22;5052858;28;20048;-67
2022/03/26 01:43:52;;;;;;;13.77;6.18;;;;;;;9.40;37.22;99789.63;5080062;28;20055;-68
2022/03/26 01:46:51;;;;;;;13.57;6.10;;;;;;;9.40;36.46;99794.88;5051436;28;20052;-67
2022/03/26 01:49:36;;;;;;;9.68;5.82;;;;;;;9.51;37.00;99805.66;5052660;28;20075;-66
2022/03/26 01:52:21;;;;;;;13.10;5.93;;;;;;;9.64;36.98;99805.94;5084619;28;20052;-67
2022/03/26 01:55:06;;;;;;;12.00;6.07;;;;;;;9.71;36.12;99806.47;5037057;28;20044;-67
2022/03/26 01:57:51;;;;;;;10.48;5.85;;;;;;;9.81;36.03;99806.88;5079109;28;20041;-67
2022/03/26 02:00:36;;;;;;;11.20;6.05;;;;;;;9.85;35.72;99796.19;5022520;28;20212;-67
2022/03/26 02:03:21;;;;;;;14.68;6.40;;;;;;;9.60;35.63;99814.81;5051883;28;20045;-67
2022/03/26 02:06:07;;;;;;;15.15;7.95;;;;;;;9.31;37.08;99802.22;5051900;28;20094;-67
2022/03/26 02:08:52;;;;;;;14.95;8.30;;;;;;;9.48;36.40;99808.44;5051856;28;20045;-67
2022/03/26 02:15:20;;;;;;;13.07;7.55;;;;;;;9.14;37.39;99807.38;5052861;28;20045;-67
2022/03/26 02:18:06;;;;;;;17.95;8.75;;;;;;;9.35;37.15;99801.13;5053079;28;20049;-67
2022/03/26 02:20:51;;;;;;;19.00;8.65;;;;;;;9.32;37.29;99803.06;5065103;28;20041;-67
2022/03/26 02:23:35;;;;;;;16.63;7.55;;;;;;;8.99;37.35;99808.00;5050765;28;20082;-67
2022/03/26 02:26:26;;;;;;;16.98;8.48;;;;;;;8.77;38.18;99812.50;5051796;28;20041;-66
2022/03/26 02:29:12;;;;;;;19.25;8.50;;;;;;;8.56;38.54;99807.31;5065836;28;20118;-66
2022/03/26 02:31:58;;;;;;;17.65;8.35;;;;;;;8.52;37.71;99803.09;5070563;28;20052;-67
2022/03/26 02:34:43;;;;;;;18.60;9.05;;;;;;;9.02;37.88;99812.25;5070094;28;20044;-67
2022/03/26 02:37:31;;;;;;;20.70;10.57;;;;;;;9.06;37.19;99811.19;5071247;28;20051;-67
2022/03/26 02:40:18;;;;;;;16.52;8.05;;;;;;;8.66;38.25;99807.75;5056464;28;20052;-67
2022/03/26 02:43:06;;;;;;;18.25;8.93;;;;;;;8.65;37.59;99806.88;5077164;28;20063;-67
2022/03/26 02:45:50;;;;;;;19.50;8.85;;;;;;;8.82;37.01;99810.53;5050951;28;20090;-67
2022/03/26 02:48:39;;;;;;;19.40;9.13;;;;;;;8.90;37.10;99810.19;5055832;28;20502;-67
2022/03/26 02:51:25;;;;;;;16.35;8.60;;;;;;;8.99;37.78;99799.34;5049623;28;20037;-67
2022/03/26 02:54:18;;;;;;;19.38;9.45;;;;;;;8.96;36.90;99799.47;5049807;28;20445;-67
2022/03/26 02:57:04;;;;;;;16.88;8.82;;;;;;;8.93;37.93;99789.13;5050287;28;20750;-66
2022/03/26 02:59:53;;;;;;;17.20;8.23;;;;;;;8.99;37.20;99789.69;5050649;28;20137;-67
2022/03/26 03:02:41;;;;;;;16.40;8.07;;;;;;;9.10;38.22;99791.84;5077144;28;20044;-67
2022/03/26 03:05:27;;;;;;;14.80;8.23;;;;;;;9.17;36.48;99799.41;5077671;28;20044;-67
2022/03/26 03:08:11;;;;;;;17.98;8.20;;;;;;;9.17;38.09;99797.63;5049175;28;20096;-67
2022/03/26 03:10:56;;;;;;;15.82;8.23;;;;;;;8.99;37.56;99799.34;5052688;28;20045;-66
2022/03/26 03:13:41;;;;;;;18.90;8.02;;;;;;;9.11;39.24;99796.16;5050478;28;20090;-68
2022/03/26 03:16:26;;;;;;;15.55;7.97;;;;;;;9.16;38.01;99792.44;5052810;28;20056;-67
2022/03/26 03:19:11;;;;;;;14.73;7.80;;;;;;;9.05;38.63;99796.44;5050359;28;20041;-68
2022/03/26 03:21:59;;;;;;;16.35;7.72;;;;;;;8.78;39.39;99796.75;5053138;28;20501;-67
2022/03/26 03:24:45;;;;;;;15.40;8.00;;;;;;;8.85;38.19;99792.94;5036937;28;20045;-68
2022/03/26 03:27:30;;;;;;;15.43;7.30;;;;;;;9.12;38.66;99794.38;5052063;28;20037;-67
2022/03/26 03:30:15;;;;;;;14.18;7.35;;;;;;;9.24;36.57;99796.41;5051332;28;20060;-67
2022/03/26 03:32:59;;;;;;;18.48;7.93;;;;;;;9.08;38.34;99795.44;5058914;28;20048;-67
2022/03/26 03:35:44;;;;;;;15.30;7.45;;;;;;;8.62;39.23;99797.44;5055130;28;20075;-67
2022/03/26 03:38:29;;;;;;;14.73;7.47;;;;;;;8.67;38.76;99796.38;5069659;28;20071;-66
2022/03/26 03:41:17;;;;;;;18.40;8.07;;;;;;;8.91;39.53;99789.19;5070621;28;20453;-67
2022/03/26 03:44:02;;;;;;;18.67;7.85;;;;;;;8.99;37.62;99791.50;5069778;28;20078;-66
2022/03/26 03:46:47;;;;;;;15.32;7.72;;;;;;;8.78;38.49;99791.53;5070360;28;20093;-67
2022/03/26 03:49:33;;;;;;;17.00;8.63;;;;;;;8.56;40.17;99794.25;5069636;28;20490;-67
2022/03/26 03:52:18;;;;;;;14.82;8.07;;;;;;;8.79;38.77;99788.00;5070743;28;20058;-67
2022/03/26 03:55:05;;;;;;;15.65;7.68;;;;;;;8.73;39.32;99786.50;5041855;28;20044;-67
2022/03/26 03:57:50;;;;;;;17.02;7.95;;;;;;;8.61;39.27;99787.91;5055848;28;20048;-67
2022/03/26 04:00:36;;;;;;;17.95;8.13;;;;;;;8.66;39.91;99790.31;5069703;28;20693;-67
2022/03/26 04:03:23;;;;;;;17.23;8.98;;;;;;;8.35;40.41;99789.88;5070383;28;20064;-67
2022/03/26 04:06:07;;;;;;;19.92;9.23;;;;;;;8.39;40.84;99793.16;5070494;28;20037;-66
2022/03/26 04:08:52;;;;;;;16.48;8.43;;;;;;;8.26;39.93;99798.06;5069596;28;20119;-67
2022/03/26 04:11:37;;;;;;;16.52;8.27;;;;;;;8.47;39.91;99787.63;5070438;28;20545;-67
2022/03/26 04:14:22;;;;;;;15.10;8.00;;;;;;;8.58;39.16;99795.88;5069423;28;20126;-67
2022/03/26 04:17:07;;;;;;;17.77;8.18;;;;;;;8.20;40.05;99793.97;5055107;28;20049;-66
2022/03/26 04:19:53;;;;;;;14.82;7.97;;;;;;;8.20;40.34;99798.34;5069463;28;20049;-67
2022/03/26 04:22:39;;;;;;;13.18;7.55;;;;;;;8.20;40.35;99800.94;5070543;28;20507;-67
2022/03/26 04:25:24;;;;;;;16.13;8.80;;;;;;;8.17;41.59;99796.72;5071840;28;20052;-67
2022/03/26 04:28:08;;;;;;;18.42;8.85;;;;;;;7.97;41.62;99793.16;5072987;28;20060;-67
2022/03/26 04:30:54;;;;;;;17.10;8.57;;;;;;;7.88;40.68;99810.03;5066027;28;20040;-68
2022/03/26 04:33:39;;;;;;;20.08;8.68;;;;;;;7.84;41.89;99802.41;5039017;28;20091;-67
2022/03/26 04:36:24;;;;;;;16.77;8.27;;;;;;;7.89;40.62;99798.72;5058522;28;20574;-68
2022/03/26 04:39:08;;;;;;;18.25;8.38;;;;;;;7.96;41.74;99793.25;5064248;28;20047;-67
2022/03/26 04:41:53;;;;;;;19.73;8.82;;;;;;;7.64;42.54;99801.44;5056663;28;20438;-66
2022/03/26 04:44:38;;;;;;;24.33;9.57;;;;;;;7.58;43.39;99809.50;5070483;28;20393;-67
2022/03/26 04:47:23;;;;;;;12.15;6.18;;;;;;;7.99;48.88;99803.53;5063655;28;20095;-66
2022/03/26 04:50:10;;;;;;;14.32;6.72;;;;;;;8.19;43.71;99799.25;5055433;28;20041;-66
2022/03/26 04:52:55;;;;;;;15.18;8.70;;;;;;;8.36;41.93;99807.22;5058766;28;20416;-67
2022/03/26 04:55:40;;;;;;;41.90;17.08;;;;;;;8.37;53.54;99805.47;5055164;28;20037;-66
2022/03/26 04:58:25;;;;;;;28.35;13.57;;;;;;;8.49;48.42;99815.38;5066466;28;20067;-67
2022/03/26 05:01:10;;;;;;;23.73;10.07;;;;;;;8.78;43.13;99816.81;5060837;28;20404;-66
2022/03/26 05:04:20;;;;;;;18.75;8.88;;;;;;;8.50;43.30;99816.25;5057724;28;20052;-67
2022/03/26 05:10:10;;;;;;;21.75;8.57;;;;;;;8.55;41.80;99827.34;5102729;28;20051;-67
2022/03/26 05:12:58;;;;;;;19.65;8.38;;;;;;;8.61;41.98;99834.94;5068930;28;20049;-67
2022/03/26 05:15:43;;;;;;;21.58;8.77;;;;;;;8.57;41.31;99843.81;5057975;28;20044;-68
2022/03/26 05:18:28;;;;;;;18.65;8.30;;;;;;;8.57;42.06;99842.97;5073456;28;20060;-69
2022/03/26 05:21:14;;;;;;;18.15;7.50;;;;;;;8.76;41.11;99840.41;5054917;28;20433;-69
2022/03/26 05:24:00;;;;;;;18.73;8.60;;;;;;;8.89;41.16;99843.31;5068474;28;20056;-68
2022/03/26 05:26:45;;;;;;;17.38;7.75;;;;;;;9.07;40.24;99849.50;5074013;28;20051;-70
2022/03/26 05:29:31;;;;;;;15.82;7.82;;;;;;;9.08;40.91;99851.19;5060114;28;20067;-69
2022/03/26 05:32:16;;;;;;;16.08;7.72;;;;;;;9.05;40.91;99840.00;5051636;28;20091;-68
2022/03/26 05:35:03;;;;;;;18.02;8.05;;;;;;;9.17;40.80;99855.13;5060027;28;20048;-69
2022/03/26 05:37:49;;;;;;;14.27;7.82;;;;;;;9.27;40.64;99855.56;5072554;28;20052;-69
2022/03/26 05:40:35;;;;;;;20.90;8.55;;;;;;;9.29;40.50;99856.34;5072754;28;20045;-69
2022/03/26 05:43:21;;;;;;;15.32;7.07;;;;;;;9.40;44.64;99863.69;5087701;28;20550;-68
2022/03/26 05:46:07;;;;;;;13.80;7.28;;;;;;;9.37;41.87;99871.69;5066986;28;20052;-71
2022/03/26 05:48:52;;;;;;;13.95;7.03;;;;;;;9.43;41.04;99870.56;5064411;28;20033;-70
2022/03/26 05:51:37;;;;;;;14.70;7.43;;;;;;;9.80;39.60;99865.38;5052169;28;20041;-69
2022/03/26 05:54:22;;;;;;;13.77;7.32;;;;;;;9.72;39.76;99873.59;5051359;28;20472;-68
2022/03/26 05:57:10;;;;;;;17.27;8.43;;;;;;;9.42;40.44;99872.31;5069343;28;20125;-69
2022/03/26 05:59:55;;;;;;;14.93;7.53;;;;;;;8.98;41.22;99883.88;5060587;28;20048;-68
2022/03/26 06:02:40;;;;;;;17.65;8.23;;;;;;;9.29;40.70;99873.78;5064833;28;20682;-68
2022/03/26 06:05:25;;;;;;;15.82;7.63;;;;;;;9.34;40.24;99874.44;5052153;28;20385;-67
2022/03/26 06:08:10;;;;;;;15.50;7.53;;;;;;;9.77;39.34;99873.34;5065055;28;20048;-69
2022/03/26 06:10:55;;;;;;;15.68;8.10;;;;;;;9.97;39.01;99880.28;5050795;28;20045;-67
2022/03/26 06:13:42;;;;;;;24.17;10.20;;;;;;;9.96;39.42;99879.41;5051124;28;20090;-66
2022/03/26 06:16:29;;;;;;;15.98;8.00;;;;;;;10.04;38.88;99893.88;5051441;28;20056;-69
2022/03/26 06:19:16;;;;;;;18.35;8.48;;;;;;;10.22;38.63;99890.38;5050196;28;20075;-68
2022/03/26 06:22:00;;;;;;;21.00;10.25;;;;;;;10.35;38.74;99892.38;5051986;28;20045;-68
2022/03/26 06:24:46;;;;;;;25.75;9.68;;;;;;;10.77;38.11;99887.69;5064510;28;20040;-68
2022/03/26 06:27:31;;;;;;;18.42;8.98;;;;;;;10.71;37.94;99882.78;5050195;28;20065;-68
2022/03/26 06:30:16;;;;;;;20.83;8.98;;;;;;;11.01;37.09;99881.25;5051687;28;20459;-67
2022/03/26 06:33:01;;;;;;;18.58;8.93;;;;;;;11.93;35.37;99892.91;5051636;28;20052;-68
2022/03/26 06:35:46;;;;;;;18.15;9.55;;;;;;;11.74;35.57;99882.59;5050516;28;20095;-68
2022/03/26 06:38:38;;;;;;;16.02;8.60;;;;;;;11.46;36.25;99887.59;5051548;28;20107;-67
2022/03/26 06:41:23;;;;;;;17.25;8.93;;;;;;;11.95;35.54;99896.31;5069576;28;20137;-68
2022/03/26 06:44:09;;;;;;;18.17;9.73;;;;;;;12.34;34.79;99900.34;5056473;28;20059;-68
2022/03/26 06:46:54;;;;;;;20.38;9.45;;;;;;;12.21;35.14;99901.03;5049693;28;20052;-62
2022/03/26 06:49:41;;;;;;;18.40;9.93;;;;;;;12.19;35.33;99903.75;5053418;28;20094;-63
2022/03/26 06:52:26;;;;;;;16.23;8.00;;;;;;;12.77;34.59;99902.22;5052822;28;20052;-65
2022/03/26 06:55:12;;;;;;;15.20;9.00;;;;;;;13.03;33.90;99898.03;5050111;28;20036;-66
2022/03/26 06:57:57;;;;;;;20.65;10.02;;;;;;;13.15;34.03;99892.94;5049989;28;20464;-67
2022/03/26 07:00:44;;;;;;;19.55;10.10;;;;;;;13.39;33.64;99902.88;5050581;28;20044;-68
2022/03/26 07:03:30;;;;;;;20.35;9.90;;;;;;;13.60;33.44;99898.09;5063275;28;20048;-68
2022/03/26 07:06:19;;;;;;;24.52;11.57;;;;;;;14.20;32.52;99905.72;5064252;28;20052;-67
2022/03/26 07:09:04;;;;;;;15.45;8.73;;;;;;;14.34;32.31;99910.09;5056675;28;20109;-68
2022/03/26 07:11:52;;;;;;;18.13;8.77;;;;;;;14.86;31.40;99906.69;5070253;28;20115;-68
2022/03/26 07:14:37;;;;;;;21.88;11.05;;;;;;;15.26;30.88;99916.25;5070840;28;20047;-70
2022/03/26 07:17:24;;;;;;;25.67;11.07;;;;;;;15.35;31.08;99906.88;5069362;28;20130;-67
2022/03/26 07:20:11;;;;;;;17.38;8.43;;;;;;;14.84;31.78;99913.84;5069773;28;20393;-67
2022/03/26 07:22:57;;;;;;;23.85;11.10;;;;;;;14.92;31.94;99914.19;5071236;28;20041;-68
2022/03/26 07:25:45;;;;;;;21.80;11.05;;;;;;;14.77;32.52;99905.50;5074850;28;20070;-68
2022/03/26 07:28:32;;;;;;;22.88;9.98;;;;;;;15.12;31.56;99911.97;5075083;28;20072;-68
2022/03/26 07:31:17;;;;;;;20.52;10.00;;;;;;;15.87;30.39;99915.50;5071071;28;20049;-66
2022/03/26 07:34:04;;;;;;;17.23;9.55;;;;;;;15.75;30.14;99916.38;5056161;28;20044;-67
2022/03/26 07:36:49;;;;;;;16.20;9.52;;;;;;;16.55;29.34;99913.28;5042128;28;20044;-67
2022/03/26 07:39:35;;;;;;;19.42;10.85;;;;;;;16.93;28.76;99927.16;5069731;28;20066;-68
2022/03/26 07:42:20;;;;;;;20.63;10.00;;;;;;;16.93;28.19;99924.53;5071057;28;20121;-69
2022/03/26 07:45:05;;;;;;;18.75;9.68;;;;;;;17.16;28.62;99919.28;5066354;28;20041;-67
2022/03/26 07:47:50;;;;;;;20.00;9.15;;;;;;;17.45;27.96;99916.97;5069188;28;20048;-68
2022/03/26 07:50:35;;;;;;;19.25;9.20;;;;;;;17.82;27.53;99921.13;5070622;28;20122;-68
2022/03/26 07:53:22;;;;;;;21.48;10.88;;;;;;;17.63;27.96;99920.94;5055707;28;20045;-68
2022/03/26 07:56:07;;;;;;;20.38;10.02;;;;;;;17.90;27.47;99922.31;5070955;28;20048;-68
2022/03/26 07:58:52;;;;;;;21.90;10.18;;;;;;;18.29;26.64;99927.16;5070550;28;20079;-67
2022/03/26 08:01:39;;;;;;;20.63;10.63;;;;;;;19.07;25.58;99916.22;5074592;28;20037;-68
2022/03/26 08:04:24;;;;;;;18.50;10.13;;;;;;;19.37;25.55;99920.81;5073213;28;20040;-67
2022/03/26 08:07:09;;;;;;;22.38;11.48;;;;;;;18.94;25.99;99918.22;5074157;28;20071;-67
2022/03/26 08:09:54;;;;;;;23.55;11.65;;;;;;;18.77;26.92;99919.69;5073177;28;20040;-67
2022/03/26 08:12:39;;;;;;;16.80;9.13;;;;;;;19.54;26.08;99916.66;5073592;28;20082;-68
2022/03/26 08:15:24;;;;;;;20.60;9.40;;;;;;;19.17;25.59;99931.38;5074255;28;20075;-69
2022/03/26 08:18:08;;;;;;;22.80;11.43;;;;;;;19.34;25.91;99929.88;5073854;28;20408;-69
2022/03/26 08:20:53;;;;;;;15.00;8.80;;;;;;;19.95;25.96;99929.91;5074268;28;20043;-67
2022/03/26 08:23:38;;;;;;;20.92;10.60;;;;;;;20.18;24.71;99935.00;5074249;28;20131;-70
2022/03/26 08:26:23;;;;;;;31.33;12.05;;;;;;;19.66;25.78;99933.34;5074396;28;20045;-69
2022/03/26 08:29:08;;;;;;;20.33;9.63;;;;;;;19.92;24.99;99933.69;5074844;28;20079;-68
2022/03/26 08:31:54;;;;;;;18.38;10.65;;;;;;;20.03;25.42;99931.91;5078307;28;20456;-67
2022/03/26 08:34:39;;;;;;;27.38;11.63;;;;;;;20.69;24.11;99937.50;5068173;28;20472;-68
2022/03/26 08:37:24;;;;;;;21.30;10.02;;;;;;;20.63;24.47;99935.41;5056437;28;20269;-68
2022/03/26 08:40:10;;;;;;;22.55;10.80;;;;;;;20.72;24.41;99941.69;5068079;28;20109;-68
2022/03/26 08:42:58;;;;;;;20.80;9.68;;;;;;;20.99;25.01;99946.25;5073155;28;20440;-68
2022/03/26 08:45:43;;;;;;;20.17;10.77;;;;;;;20.89;23.84;99943.59;5073734;28;20151;-68
2022/03/26 08:48:28;;;;;;;16.92;9.00;;;;;;;20.63;25.31;99943.38;5073188;28;20530;-68
2022/03/26 08:51:14;;;;;;;15.50;9.30;;;;;;;21.53;24.00;99932.31;5072365;28;20519;-67
2022/03/26 08:53:59;;;;;;;19.20;9.82;;;;;;;21.80;23.47;99928.97;5072369;28;20048;-68
2022/03/26 08:56:46;;;;;;;17.10;9.32;;;;;;;22.60;22.89;99932.69;5072612;28;20037;-67
2022/03/26 08:59:31;;;;;;;20.08;10.02;;;;;;;23.11;22.89;99937.38;5072532;28;20480;-67
2022/03/26 09:02:16;;;;;;;22.77;9.35;;;;;;;22.99;22.03;99934.97;5073139;28;20045;-67
2022/03/26 09:05:04;;;;;;;18.20;10.40;;;;;;;22.84;23.08;99931.19;5072837;28;20048;-66
2022/03/26 09:07:50;;;;;;;20.77;11.50;;;;;;;22.31;22.19;99937.25;5073464;28;20155;-67
2022/03/26 09:10:36;;;;;;;15.98;9.27;;;;;;;23.17;22.24;99943.88;5073114;28;20048;-68
2022/03/26 09:13:20;;;;;;;16.27;9.80;;;;;;;23.67;21.66;99936.94;5072470;28;20114;-67
2022/03/26 09:16:05;;;;;;;16.00;9.23;;;;;;;23.77;21.40;99933.28;5072603;28;20048;-65
2022/03/26 09:18:51;;;;;;;17.50;9.05;;;;;;;23.82;21.43;99930.94;5072845;28;20044;-66
2022/03/26 09:21:36;;;;;;;17.23;8.93;;;;;;;23.85;20.64;99930.63;5048007;28;20041;-67
2022/03/26 09:24:23;;;;;;;17.05;9.45;;;;;;;23.09;22.13;99923.31;5052751;28;20411;-68
2022/03/26 09:27:09;;;;;;;16.05;8.73;;;;;;;23.96;21.72;99924.13;5051688;28;20067;-67
2022/03/26 09:29:55;;;;;;;18.75;9.20;;;;;;;24.88;20.50;99924.94;5056019;28;20071;-66
2022/03/26 09:32:44;;;;;;;16.90;8.98;;;;;;;24.88;19.94;99921.41;5053868;28;20045;-64
2022/03/26 09:35:29;;;;;;;21.63;11.25;;;;;;;24.85;20.67;99919.94;5092006;28;20036;-64
2022/03/26 09:38:16;;;;;;;18.00;10.25;;;;;;;25.24;19.88;99925.53;5093082;28;20523;-68
2022/03/26 09:41:01;;;;;;;20.00;9.65;;;;;;;24.77;18.96;99918.13;5077812;28;20123;-69
2022/03/26 09:43:46;;;;;;;14.43;7.97;;;;;;;24.03;19.38;99908.22;5057648;28;20511;-69
2022/03/26 09:46:34;;;;;;;25.67;10.55;;;;;;;23.56;20.02;99916.69;5072999;28;20503;-70
2022/03/26 09:49:20;;;;;;;19.33;10.13;;;;;;;22.46;20.94;99912.69;5071105;28;20054;-65
2022/03/26 09:52:06;;;;;;;18.40;10.07;;;;;;;24.40;17.39;99914.16;5072732;28;20135;-65
2022/03/26 09:54:51;;;;;;;18.15;9.52;;;;;;;23.61;19.29;99910.84;5043996;28;20036;-67
2022/03/26 09:57:36;;;;;;;14.80;8.57;;;;;;;24.23;17.95;99908.78;5072622;28;20063;-66
2022/03/26 10:00:22;;;;;;;16.25;8.85;;;;;;;23.68;18.87;99906.50;5057164;28;20044;-67
2022/03/26 10:03:07;;;;;;;15.50;8.27;;;;;;;24.34;17.77;99908.44;5056748;28;20040;-66
2022/03/26 10:06:07;;;;;;;29.92;10.07;;;;;;;25.22;21.08;99914.97;5070937;28;20120;-67
2022/03/26 10:08:51;;;;;;;22.80;9.90;;;;;;;26.48;15.50;99901.63;5071850;28;20488;-69
2022/03/26 10:11:36;;;;;;;22.30;10.18;;;;;;;25.76;16.34;99891.94;5073357;28;20104;-73
2022/03/26 10:14:24;;;;;;;19.85;9.40;;;;;;;26.51;16.03;99894.06;5056425;28;20048;-73
2022/03/26 10:17:24;;;;;;;20.08;10.27;;;;;;;26.03;15.22;99892.41;5073352;28;20515;-73
2022/03/26 10:20:12;;;;;;;16.45;9.27;;;;;;;23.92;16.99;99902.22;5081122;28;20049;-71
2022/03/26 10:22:57;;;;;;;18.20;8.70;;;;;;;24.52;18.62;99899.41;5070066;28;20079;-69
2022/03/26 10:25:42;;;;;;;14.65;8.50;;;;;;;26.80;17.02;99888.88;5056902;28;20044;-73
2022/03/26 10:28:29;;;;;;;18.58;8.57;;;;;;;27.45;16.53;99887.47;5062525;28;20044;-73
2022/03/26 10:34:22;;;;;;;20.17;9.57;;;;;;;25.77;17.87;99882.88;5071075;28;20049;-72
2022/03/26 10:37:09;;;;;;;20.48;9.90;;;;;;;24.58;16.60;99884.50;5056257;28;20055;-74
2022/03/26 10:39:56;;;;;;;21.17;10.20;;;;;;;23.22;18.74;99885.47;5051070;28;20041;-70
2022/03/26 10:42:40;;;;;;;16.58;6.20;;;;;;;25.83;18.26;99882.19;5054649;28;20074;-70
2022/03/26 10:45:27;;;;;;;17.10;7.80;;;;;;;26.35;17.91;99887.00;5063111;28;20076;-69
2022/03/26 10:48:12;;;;;;;15.32;8.50;;;;;;;25.28;16.66;99887.47;5061525;28;20155;-69
2022/03/26 10:51:09;;;;;;;18.50;8.48;;;;;;;24.50;17.41;99895.22;5057185;28;20098;-73
2022/03/26 10:53:59;;;;;;;13.98;7.93;;;;;;;24.98;18.94;99879.22;5066671;28;20398;-71
2022/03/26 10:56:46;;;;;;;14.98;7.38;;;;;;;26.46;16.28;99874.97;5043219;28;20070;-72
2022/03/26 10:59:31;;;;;;;14.13;8.15;;;;;;;28.40;15.62;99870.34;5067500;28;20060;-70
2022/03/26 11:02:17;;;;;;;15.45;6.95;;;;;;;28.45;15.95;99869.78;5070095;28;20404;-71
2022/03/26 11:05:03;;;;;;;17.15;9.75;;;;;;;27.27;15.75;99861.81;5071017;28;20044;-70
2022/03/26 11:07:53;;;;;;;19.45;9.93;;;;;;;27.35;16.14;99858.16;5069590;28;20044;-71
2022/03/26 11:10:39;;;;;;;17.92;7.20;;;;;;;28.51;16.04;99858.22;5056345;28;20142;-73
2022/03/26 11:13:26;;;;;;;15.23;8.77;;;;;;;28.53;15.52;99865.06;5069854;28;20090;-74
2022/03/26 11:16:39;;;;;;;17.67;9.95;;;;;;;26.85;16.47;99858.78;5071253;28;20056;-72
2022/03/26 11:19:35;;;;;;;17.75;7.97;;;;;;;27.60;14.87;99855.94;5062635;28;20214;-74
2022/03/26 11:22:23;;;;;;;22.48;9.75;;;;;;;23.13;18.06;99852.50;5073044;28;20051;-71
2022/03/26 11:25:36;;;;;;;16.35;8.20;;;;;;;25.59;18.53;99850.97;5070712;28;20120;-72
2022/03/26 11:28:51;;;;;;;9.32;5.00;;;;;;;27.95;15.67;99841.81;5069773;28;20044;-72
2022/03/26 11:32:14;;;;;;;14.20;8.70;;;;;;;27.57;15.66;99832.13;5050858;28;20477;-74
2022/03/26 11:35:00;;;;;;;14.48;8.43;;;;;;;29.05;14.74;99833.44;5053867;28;20556;-74
2022/03/26 11:37:55;;;;;;;13.65;7.05;;;;;;;25.03;16.27;99822.44;5054491;28;20408;-74
2022/03/26 11:41:08;;;;;;;11.73;6.85;;;;;;;25.63;17.34;99814.75;5065897;28;20460;-75
2022/03/26 11:43:55;;;;;;;17.25;9.10;;;;;;;26.15;15.35;99808.75;5045702;28;20476;-74
2022/03/26 11:52:55;;;;;;;12.10;5.72;;;;;;;25.27;17.71;99796.50;5080803;28;20052;-74
2022/03/26 12:03:01;;;;;;;11.65;6.93;;;;;;;28.97;14.05;99792.13;4971623;28;20074;-58
2022/03/26 12:08:55;;;;;;;15.75;7.35;;;;;;;25.37;15.46;99786.41;5010359;28;20054;-59
2022/03/26 12:12:13;;;;;;;14.63;7.75;;;;;;;25.49;15.69;99778.78;5014357;28;20061;-57
2022/03/26 12:15:04;;;;;;;14.77;5.63;;;;;;;27.32;14.61;99772.50;5003331;28;20389;-58
2022/03/26 12:18:03;;;;;;;15.18;6.78;;;;;;;26.04;16.04;99769.78;4993913;28;20497;-58
2022/03/26 12:20:51;;;;;;;12.67;7.73;;;;;;;27.27;14.70;99755.06;4982567;28;20046;-56
2022/03/26 12:23:36;;;;;;;13.63;7.88;;;;;;;26.89;14.74;99755.25;4980039;28;20056;-57
2022/03/26 12:26:21;;;;;;;16.20;7.50;;;;;;;26.64;15.63;99755.56;4963625;28;20378;-57
2022/03/26 12:29:06;;;;;;;10.00;5.75;;;;;;;27.52;15.51;99748.47;4992783;28;20046;-58
2022/03/26 12:31:51;;;;;;;13.18;5.13;;;;;;;27.15;14.69;99738.63;4965766;28;20034;-60
2022/03/26 12:34:54;;;;;;;12.43;6.20;;;;;;;28.57;14.21;99738.03;4980426;28;20042;-59
2022/03/26 12:37:40;;;;;;;9.57;6.13;;;;;;;28.15;12.71;99741.53;4991456;28;20042;-57
2022/03/26 12:40:24;;;;;;;16.00;7.30;;;;;;;27.52;14.86;99732.31;4994749;28;20586;-57
2022/03/26 12:43:10;;;;;;;9.32;5.70;;;;;;;27.43;14.11;99732.50;4993299;28;20042;-58
2022/03/26 12:45:58;;;;;;;14.55;6.13;;;;;;;27.90;14.59;99733.91;4978558;28;20042;-58
2022/03/26 12:48:42;;;;;;;9.90;4.72;;;;;;;27.07;14.03;99730.69;4994095;28;20057;-57
2022/03/26 12:51:28;;;;;;;16.45;7.70;;;;;;;25.41;14.57;99728.69;4993790;28;20408;-58
2022/03/26 12:54:13;;;;;;;12.60;7.13;;;;;;;25.24;15.82;99732.53;4994178;28;20043;-58
2022/03/26 12:57:01;;;;;;;10.98;5.40;;;;;;;26.73;15.05;99716.00;4994003;28;20050;-56
2022/03/26 12:59:54;;;;;;;10.25;4.80;;;;;;;26.55;15.55;99715.38;4978403;28;20149;-58
2022/03/26 13:02:39;;;;;;;12.10;6.10;;;;;;;26.59;14.52;99712.34;4995579;28;20069;-58
2022/03/26 13:05:24;;;;;;;9.23;5.25;;;;;;;27.51;15.44;99714.53;4967257;28;20046;-57
2022/03/26 13:08:13;;;;;;;12.75;5.70;;;;;;;26.81;14.49;99707.84;4989380;28;20042;-57
2022/03/26 13:11:07;;;;;;;12.10;7.15;;;;;;;26.71;15.28;99705.44;4991791;28;20046;-57
2022/03/26 13:13:54;;;;;;;10.80;6.22;;;;;;;28.19;13.85;99705.09;4991103;28;20054;-57
2022/03/26 13:16:39;;;;;;;12.25;6.78;;;;;;;27.89;13.98;99695.38;4989760;28;20034;-58
2022/03/26 13:19:34;;;;;;;15.40;7.55;;;;;;;26.76;13.83;99686.06;4990445;28;20401;-58
2022/03/26 13:22:19;;;;;;;14.95;6.90;;;;;;;26.35;14.54;99688.28;4986697;28;20050;-56
2022/03/26 13:25:04;;;;;;;11.95;5.75;;;;;;;25.48;15.63;99693.97;4979328;28;20490;-58